Time;durP1;ratioP1;P1;durP2;ratioP2;P2;SDS_P1;SDS_P2;PMS_P1;PMS_P2;Temp;Humidity;BMP_temperature;BMP_pressure;BME280_temperature;BME280_humidity;BME280_pressure;Samples;Min_cycle;Max_cycle;Signal;HPM_P1;HPM_P2
2022/08/17 00:02:15;;;;;;;8.43;6.63;;;25.40;49.50;;;;;;5075571;28;20460;-70
2022/08/17 00:04:43;;;;;;;10.07;6.67;;;25.30;49.40;;;;;;5075190;28;20452;-70
2022/08/17 00:07:11;;;;;;;6.87;6.37;;;25.30;49.50;;;;;;5075209;28;20460;-70
2022/08/17 00:09:38;;;;;;;7.17;6.47;;;25.30;49.60;;;;;;5075223;28;20449;-70
2022/08/17 00:12:06;;;;;;;6.63;6.13;;;25.30;49.70;;;;;;5075340;28;20472;-70
2022/08/17 00:14:32;;;;;;;7.20;6.60;;;25.20;49.80;;;;;;5075564;28;20445;-70
2022/08/17 00:16:59;;;;;;;11.40;6.73;;;25.20;49.90;;;;;;5075088;28;20956;-70
2022/08/17 00:19:26;;;;;;;7.70;6.97;;;25.20;50.10;;;;;;5075503;28;20452;-70
2022/08/17 00:21:58;;;;;;;6.67;6.17;;;25.10;50.20;;;;;;5074979;28;20483;-70
2022/08/17 00:24:28;;;;;;;8.43;7.30;;;25.10;50.30;;;;;;5075353;28;20437;-70
2022/08/17 00:26:55;;;;;;;7.50;6.80;;;25.10;50.40;;;;;;5075019;28;20449;-70
2022/08/17 00:29:21;;;;;;;7.67;6.90;;;25.00;50.40;;;;;;5075009;28;20449;-70
2022/08/17 00:31:49;;;;;;;9.37;6.50;;;25.00;50.90;;;;;;5074826;28;21015;-70
2022/08/17 00:34:16;;;;;;;7.40;6.80;;;24.90;50.40;;;;;;5075167;28;20441;-70
2022/08/17 00:36:43;;;;;;;8.90;7.20;;;24.90;50.50;;;;;;5074547;28;20448;-70
2022/08/17 00:39:10;;;;;;;8.13;7.40;;;24.80;50.40;;;;;;5074754;28;20911;-70
2022/08/17 00:41:38;;;;;;;8.90;8.10;;;24.80;50.60;;;;;;5074325;28;20995;-70
2022/08/17 00:44:08;;;;;;;8.00;7.30;;;24.80;50.70;;;;;;5075179;28;20818;-70
2022/08/17 00:46:39;;;;;;;7.73;7.00;;;24.80;50.90;;;;;;5074402;28;20455;-70
2022/08/17 00:49:07;;;;;;;7.20;6.60;;;24.70;51.00;;;;;;5074653;28;20437;-70
2022/08/17 00:51:41;;;;;;;7.67;6.97;;;24.70;51.10;;;;;;5074428;28;20468;-70
2022/08/17 00:54:12;;;;;;;7.37;6.77;;;24.70;51.10;;;;;;5074586;28;20441;-70
2022/08/17 00:56:44;;;;;;;8.80;6.70;;;24.70;51.30;;;;;;5074465;28;20445;-70
2022/08/17 00:59:13;;;;;;;7.47;6.90;;;24.70;51.60;;;;;;5074663;28;20406;-70
2022/08/17 01:01:41;;;;;;;7.50;6.90;;;24.70;51.80;;;;;;5074280;28;20559;-70
2022/08/17 01:04:09;;;;;;;8.53;7.67;;;24.60;51.90;;;;;;5074088;28;20461;-70
2022/08/17 01:06:37;;;;;;;8.30;7.50;;;24.60;52.00;;;;;;5074363;28;20471;-70
2022/08/17 01:09:04;;;;;;;6.93;6.53;;;24.50;52.00;;;;;;5074427;28;20461;-70
2022/08/17 01:11:34;;;;;;;8.60;7.90;;;24.50;52.10;;;;;;5073896;28;20997;-70
2022/08/17 01:14:03;;;;;;;7.97;7.37;;;24.40;52.00;;;;;;5073730;28;20446;-70
2022/08/17 01:16:31;;;;;;;8.83;8.00;;;24.30;51.90;;;;;;5074224;28;20456;-70
2022/08/17 01:19:00;;;;;;;8.00;7.37;;;24.30;52.00;;;;;;5074436;28;20445;-70
2022/08/17 01:21:33;;;;;;;9.40;7.97;;;24.30;52.10;;;;;;5073931;28;20493;-70
2022/08/17 01:24:01;;;;;;;8.80;7.87;;;24.20;52.00;;;;;;5074116;28;20433;-70
2022/08/17 01:26:30;;;;;;;8.83;8.13;;;24.20;52.10;;;;;;5074079;28;20452;-70
2022/08/17 01:28:57;;;;;;;8.80;7.60;;;24.20;52.30;;;;;;5073664;28;20824;-70
2022/08/17 01:31:28;;;;;;;8.87;8.17;;;24.20;52.50;;;;;;5073807;28;20468;-70
2022/08/17 01:33:55;;;;;;;8.00;7.33;;;24.10;52.50;;;;;;5073785;28;20433;-70
2022/08/17 01:36:22;;;;;;;7.93;7.07;;;24.10;52.80;;;;;;5073824;28;20455;-70
2022/08/17 01:38:49;;;;;;;7.97;7.27;;;24.10;52.90;;;;;;5073989;28;20444;-70
2022/08/17 01:41:19;;;;;;;8.50;7.90;;;24.00;52.90;;;;;;5073670;28;20485;-70
2022/08/17 01:43:49;;;;;;;10.13;7.20;;;24.00;53.00;;;;;;5073861;28;20448;-70
2022/08/17 01:46:22;;;;;;;7.20;6.70;;;24.00;53.00;;;;;;5073994;28;20471;-70
2022/08/17 01:48:49;;;;;;;8.17;7.57;;;24.00;53.10;;;;;;5073724;28;20804;-70
2022/08/17 01:51:16;;;;;;;8.20;7.50;;;24.00;53.30;;;;;;5073676;28;20452;-70
2022/08/17 01:53:49;;;;;;;8.60;7.60;;;24.00;53.60;;;;;;5073460;28;20970;-70
2022/08/17 01:56:19;;;;;;;7.60;7.00;;;24.00;53.70;;;;;;5073410;28;20444;-70
2022/08/17 01:58:46;;;;;;;8.27;7.37;;;23.90;53.80;;;;;;5073576;28;20433;-70
2022/08/17 02:01:15;;;;;;;7.50;6.90;;;23.90;53.90;;;;;;5073593;28;20499;-70
2022/08/17 02:03:42;;;;;;;8.63;7.30;;;23.80;53.80;;;;;;5073407;28;20475;-70
2022/08/17 02:06:10;;;;;;;8.13;7.33;;;23.70;53.50;;;;;;5073631;28;20445;-70
2022/08/17 02:08:36;;;;;;;9.80;8.13;;;23.70;53.50;;;;;;5073464;28;20502;-70
2022/08/17 02:11:05;;;;;;;11.67;8.23;;;23.60;53.50;;;;;;5073620;28;20465;-70
2022/08/17 02:13:33;;;;;;;9.13;8.23;;;23.60;53.60;;;;;;5073458;28;20444;-70
2022/08/17 02:16:01;;;;;;;9.13;7.93;;;23.60;53.70;;;;;;5073607;28;20452;-70
2022/08/17 02:18:29;;;;;;;8.43;7.73;;;23.50;53.70;;;;;;5073442;28;20449;-70
2022/08/17 02:20:56;;;;;;;8.90;7.80;;;23.50;53.80;;;;;;5073197;28;20488;-70
2022/08/17 02:23:26;;;;;;;9.60;8.70;;;23.50;53.90;;;;;;5073461;28;20445;-70
2022/08/17 02:25:55;;;;;;;12.90;8.63;;;23.50;54.10;;;;;;5075251;28;20536;-70
2022/08/17 02:28:22;;;;;;;10.17;7.67;;;23.50;54.30;;;;;;5077213;28;20453;-70
2022/08/17 02:30:50;;;;;;;8.60;7.90;;;23.50;54.30;;;;;;5077450;28;20472;-70
2022/08/17 02:33:17;;;;;;;8.40;7.70;;;23.50;54.60;;;;;;5077131;28;20967;-70
2022/08/17 02:35:44;;;;;;;7.67;7.07;;;23.50;54.50;;;;;;5077260;28;20450;-70
2022/08/17 02:38:11;;;;;;;8.57;7.10;;;23.50;54.60;;;;;;5077239;28;20449;-70
2022/08/17 02:40:39;;;;;;;8.40;7.80;;;23.50;54.80;;;;;;5076990;28;20836;-70
2022/08/17 02:43:06;;;;;;;8.80;7.80;;;23.50;55.00;;;;;;5077046;28;20893;-70
2022/08/17 02:45:33;;;;;;;8.67;7.90;;;23.50;55.20;;;;;;5077045;28;20456;-70
2022/08/17 02:48:01;;;;;;;8.53;7.63;;;23.50;55.30;;;;;;5077103;28;20449;-70
2022/08/17 02:50:29;;;;;;;7.23;6.63;;;23.50;55.50;;;;;;5076954;28;20539;-70
2022/08/17 02:52:56;;;;;;;8.13;7.53;;;23.50;55.50;;;;;;5077048;28;20444;-70
2022/08/17 02:55:25;;;;;;;9.50;8.40;;;23.50;55.50;;;;;;5076669;28;20955;-70
2022/08/17 02:57:53;;;;;;;9.37;8.50;;;23.50;55.60;;;;;;5076835;28;20434;-70
2022/08/17 03:00:22;;;;;;;9.60;8.60;;;23.50;55.80;;;;;;5076457;28;20865;-70
2022/08/17 03:02:50;;;;;;;9.63;8.73;;;23.60;56.00;;;;;;5076514;28;20491;-70
2022/08/17 03:05:21;;;;;;;8.73;7.93;;;23.60;56.00;;;;;;5075570;28;20520;-70
2022/08/17 03:07:48;;;;;;;8.73;7.67;;;23.60;56.00;;;;;;5075412;28;20950;-70
2022/08/17 03:10:16;;;;;;;8.57;7.83;;;23.60;56.20;;;;;;5075608;28;20449;-70
2022/08/17 03:12:44;;;;;;;11.83;8.60;;;23.60;56.10;;;;;;5075506;28;20495;-70
2022/08/17 03:15:15;;;;;;;9.80;8.90;;;23.60;56.20;;;;;;5075470;28;20440;-70
2022/08/17 03:17:42;;;;;;;9.17;8.37;;;23.60;56.20;;;;;;5075480;28;20433;-70
2022/08/17 03:20:10;;;;;;;9.57;8.77;;;23.50;56.20;;;;;;5075597;28;20437;-70
2022/08/17 03:22:41;;;;;;;9.60;8.70;;;23.50;56.30;;;;;;5074831;28;20480;-70
2022/08/17 03:25:09;;;;;;;10.33;9.43;;;23.50;56.40;;;;;;5075006;28;20429;-70
2022/08/17 03:27:36;;;;;;;8.83;8.13;;;23.50;56.60;;;;;;5075301;28;20436;-70
2022/08/17 03:30:04;;;;;;;9.17;8.37;;;23.50;56.60;;;;;;5075469;28;20453;-70
2022/08/17 03:32:37;;;;;;;11.37;8.63;;;23.50;56.70;;;;;;5075328;28;20532;-70
2022/08/17 03:35:05;;;;;;;8.30;7.50;;;23.50;56.80;;;;;;5075173;28;20524;-70
2022/08/17 03:37:32;;;;;;;9.07;8.17;;;23.50;57.00;;;;;;5074707;28;20452;-70
2022/08/17 03:40:02;;;;;;;8.97;7.77;;;23.40;56.90;;;;;;5074765;28;20445;-70
2022/08/17 03:42:29;;;;;;;9.07;8.27;;;23.50;57.10;;;;;;5074994;28;20983;-70
2022/08/17 03:44:58;;;;;;;8.30;7.47;;;23.40;57.10;;;;;;5075201;28;20449;-70
2022/08/17 03:58:26;;;;;;;9.10;8.13;;;23.40;57.10;;;;;;5074654;28;20891;-70
2022/08/17 04:00:54;;;;;;;7.30;6.70;;;23.40;57.10;;;;;;5074735;28;20468;-70
2022/08/17 04:03:21;;;;;;;16.90;9.67;;;23.50;57.30;;;;;;5038106;28;1056257;-67
2022/08/17 04:05:48;;;;;;;10.73;8.13;;;23.50;57.30;;;;;;5075817;28;20203;-67
2022/08/17 04:08:14;;;;;;;9.37;7.90;;;23.50;57.30;;;;;;5075959;28;20453;-68
2022/08/17 04:10:42;;;;;;;8.47;7.73;;;23.50;57.40;;;;;;5075696;28;20472;-67
2022/08/17 04:13:10;;;;;;;9.83;7.40;;;23.50;57.30;;;;;;5075732;28;20496;-67
2022/08/17 04:15:37;;;;;;;8.80;8.00;;;23.50;57.30;;;;;;5075870;28;20512;-67
2022/08/17 04:18:05;;;;;;;8.80;8.03;;;23.50;57.30;;;;;;5075212;28;20830;-67
2022/08/17 04:20:32;;;;;;;9.57;8.40;;;23.50;57.50;;;;;;5077124;28;20534;-67
2022/08/17 04:23:00;;;;;;;8.23;7.43;;;23.50;57.60;;;;;;5075437;28;20503;-67
2022/08/17 04:25:29;;;;;;;7.93;7.23;;;23.50;57.70;;;;;;5075319;28;20504;-68
2022/08/17 04:27:57;;;;;;;12.83;8.40;;;23.50;57.70;;;;;;5075708;28;20452;-67
2022/08/17 04:30:25;;;;;;;12.50;7.70;;;23.50;57.50;;;;;;5076029;28;20472;-67
2022/08/17 04:32:57;;;;;;;8.40;7.60;;;23.50;57.70;;;;;;5075778;28;20449;-67
2022/08/17 04:35:29;;;;;;;10.30;7.70;;;23.60;57.90;;;;;;5075229;28;20516;-67
2022/08/17 04:37:56;;;;;;;7.40;6.80;;;23.60;58.00;;;;;;5075328;28;20467;-68
2022/08/17 04:43:13;;;;;;;7.90;7.20;;;23.60;58.20;;;;;;5076012;28;20456;-68
2022/08/17 04:45:40;;;;;;;9.10;7.67;;;23.60;58.00;;;;;;5075609;28;20435;-67
2022/08/17 04:48:07;;;;;;;11.07;7.63;;;23.60;58.00;;;;;;5074661;28;20478;-67
2022/08/17 04:50:34;;;;;;;8.57;7.73;;;23.70;58.10;;;;;;5075424;28;20469;-66
2022/08/17 04:53:01;;;;;;;7.30;6.07;;;23.70;58.10;;;;;;5076503;28;20445;-67
2022/08/17 04:55:28;;;;;;;7.50;6.40;;;23.70;58.10;;;;;;5077535;28;20445;-67
2022/08/17 04:57:55;;;;;;;6.70;6.07;;;23.70;58.10;;;;;;5077222;28;20441;-67
2022/08/17 05:00:24;;;;;;;7.80;6.20;;;23.70;58.10;;;;;;5076993;28;20504;-67
2022/08/17 05:02:53;;;;;;;6.53;5.83;;;23.70;58.20;;;;;;5076049;28;20498;-67
2022/08/17 05:05:21;;;;;;;7.10;6.40;;;23.70;58.10;;;;;;5075843;28;20455;-67
2022/08/17 05:07:50;;;;;;;6.23;5.73;;;23.70;58.10;;;;;;5075572;28;20448;-67
2022/08/17 05:10:18;;;;;;;10.33;7.07;;;23.80;58.20;;;;;;5076159;28;20457;-67
2022/08/17 05:12:45;;;;;;;6.50;5.73;;;23.80;58.20;;;;;;5075507;28;20453;-67
2022/08/17 05:15:14;;;;;;;6.23;5.20;;;23.80;57.90;;;;;;5075754;28;20967;-67
2022/08/17 05:17:43;;;;;;;12.43;8.43;;;23.80;57.60;;;;;;5077517;28;20900;-69
2022/08/17 05:20:10;;;;;;;12.00;8.80;;;23.70;57.70;;;;;;5076730;28;20447;-67
2022/08/17 05:22:48;;;;;;;11.20;7.70;;;23.60;57.90;;;;;;5075935;28;20551;-67
2022/08/17 05:25:17;;;;;;;16.17;8.33;;;23.50;58.20;;;;;;5076082;28;20494;-67
2022/08/17 05:27:44;;;;;;;17.63;8.63;;;23.50;58.10;;;;;;5076939;28;20467;-68
2022/08/17 05:30:12;;;;;;;11.20;8.30;;;23.50;57.80;;;;;;5074995;28;20844;-67
2022/08/17 05:32:39;;;;;;;14.27;6.40;;;23.50;57.50;;;;;;5077201;28;20441;-67
2022/08/17 05:35:08;;;;;;;8.90;6.23;;;23.50;56.80;;;;;;5077076;28;20471;-68
2022/08/17 05:37:35;;;;;;;10.13;6.30;;;23.60;56.60;;;;;;5083991;28;20525;-67
2022/08/17 05:40:01;;;;;;;7.33;5.83;;;23.70;56.80;;;;;;5080125;28;20445;-68
2022/08/17 05:42:28;;;;;;;7.50;5.33;;;23.70;56.40;;;;;;5083195;28;20465;-67
2022/08/17 05:44:57;;;;;;;8.43;6.00;;;23.80;56.30;;;;;;5086504;28;20456;-67
2022/08/17 05:47:26;;;;;;;7.87;6.43;;;23.90;56.30;;;;;;5083302;28;20456;-67
2022/08/17 05:49:53;;;;;;;11.90;6.17;;;24.00;55.90;;;;;;5082571;28;20471;-68
2022/08/17 05:52:31;;;;;;;8.77;6.83;;;24.10;55.80;;;;;;5083449;28;20827;-67
2022/08/17 05:55:09;;;;;;;10.50;6.33;;;24.10;55.80;;;;;;5086753;28;20443;-67
2022/08/17 05:57:43;;;;;;;8.37;6.20;;;24.20;55.50;;;;;;5084067;28;20934;-67
2022/08/17 06:00:15;;;;;;;25.37;8.23;;;24.30;55.80;;;;;;5082800;28;20440;-67
2022/08/17 06:02:57;;;;;;;15.47;7.90;;;24.40;56.20;;;;;;5084536;28;20484;-67
2022/08/17 06:05:54;;;;;;;18.37;7.37;;;24.40;56.20;;;;;;5074066;28;20429;-67
2022/08/17 06:08:30;;;;;;;11.50;7.37;;;24.40;56.50;;;;;;5074544;28;20465;-68
2022/08/17 06:11:02;;;;;;;12.27;7.50;;;24.50;56.40;;;;;;5074112;28;20827;-67
2022/08/17 06:13:42;;;;;;;13.07;7.20;;;24.50;56.90;;;;;;5073438;28;20429;-67
2022/08/17 06:16:14;;;;;;;10.30;7.50;;;24.50;56.70;;;;;;5073554;28;20433;-67
2022/08/17 06:18:47;;;;;;;14.37;8.80;;;24.50;56.10;;;;;;5073228;28;20494;-67
2022/08/17 06:21:18;;;;;;;16.40;9.03;;;24.50;56.40;;;;;;5073161;28;21002;-70
2022/08/17 06:23:51;;;;;;;8.70;7.80;;;24.50;56.50;;;;;;5073013;28;20485;-68
2022/08/17 06:26:24;;;;;;;9.30;8.30;;;24.60;56.50;;;;;;5073145;28;20452;-69
2022/08/17 06:28:54;;;;;;;9.03;8.33;;;24.60;57.20;;;;;;5073045;28;20437;-68
2022/08/17 06:31:27;;;;;;;12.40;9.40;;;24.60;57.50;;;;;;5073171;28;20536;-68
2022/08/17 06:33:56;;;;;;;10.00;9.07;;;24.60;57.70;;;;;;5073239;28;20429;-68
2022/08/17 06:36:44;;;;;;;10.90;9.77;;;24.50;57.50;;;;;;5072940;28;20452;-68
2022/08/17 06:39:25;;;;;;;13.43;8.30;;;24.50;57.50;;;;;;5073507;28;20429;-68
2022/08/17 06:42:04;;;;;;;9.07;7.67;;;24.60;57.60;;;;;;5072949;28;20469;-68
2022/08/17 06:44:38;;;;;;;9.43;7.77;;;24.60;57.40;;;;;;5072935;28;20987;-68
2022/08/17 06:47:12;;;;;;;9.17;8.40;;;24.60;57.40;;;;;;5073126;28;20516;-68
2022/08/17 06:49:48;;;;;;;9.27;8.37;;;24.70;57.80;;;;;;5072980;28;20442;-69
2022/08/17 06:52:20;;;;;;;9.80;8.90;;;24.70;58.00;;;;;;5072889;28;20535;-68
2022/08/17 06:54:55;;;;;;;12.80;9.20;;;24.70;57.90;;;;;;5072722;28;20831;-69
2022/08/17 06:57:27;;;;;;;10.37;9.30;;;24.80;57.80;;;;;;5072892;28;20432;-69
2022/08/17 06:59:57;;;;;;;9.83;8.67;;;24.80;57.60;;;;;;5073108;28;20532;-69
2022/08/17 07:02:35;;;;;;;9.83;8.63;;;24.90;57.60;;;;;;5072330;28;20481;-69
2022/08/17 07:05:04;;;;;;;9.20;8.40;;;24.90;57.90;;;;;;5072791;28;20440;-69
2022/08/17 07:10:20;;;;;;;9.60;8.80;;;25.00;57.50;;;;;;5072825;28;20455;-69
2022/08/17 07:12:50;;;;;;;15.13;9.63;;;25.00;57.10;;;;;;5075874;28;20444;-68
2022/08/17 07:15:23;;;;;;;10.50;9.50;;;25.10;57.00;;;;;;5076425;28;20429;-68
2022/08/17 07:17:50;;;;;;;8.60;7.90;;;25.10;57.50;;;;;;5076455;28;20891;-67
2022/08/17 07:20:21;;;;;;;12.60;9.47;;;25.20;57.20;;;;;;5076157;28;20449;-67
2022/08/17 07:22:54;;;;;;;9.17;8.30;;;25.30;57.10;;;;;;5075818;28;20516;-67
2022/08/17 07:25:22;;;;;;;11.80;8.97;;;25.40;57.30;;;;;;5076283;28;20440;-67
2022/08/17 07:27:51;;;;;;;11.57;9.30;;;25.40;57.20;;;;;;5076043;28;20457;-67
2022/08/17 07:30:22;;;;;;;10.70;9.73;;;25.50;56.40;;;;;;5076702;28;20498;-67
2022/08/17 07:32:56;;;;;;;9.93;8.93;;;25.50;56.70;;;;;;5076003;28;21033;-68
2022/08/17 07:35:38;;;;;;;10.47;9.37;;;25.50;56.80;;;;;;5075969;28;20441;-68
2022/08/17 07:38:12;;;;;;;18.33;10.27;;;25.50;56.50;;;;;;5076225;28;20440;-68
2022/08/17 07:40:41;;;;;;;10.90;10.00;;;25.50;56.50;;;;;;5075847;28;20555;-67
2022/08/17 07:43:22;;;;;;;12.73;10.33;;;25.50;56.40;;;;;;5075744;28;20484;-67
2022/08/17 07:48:48;;;;;;;11.47;10.13;;;25.50;56.20;;;;;;5076064;28;20397;-68
2022/08/17 07:51:20;;;;;;;12.10;10.80;;;25.50;56.50;;;;;;5075715;28;20496;-67
2022/08/17 08:23:18;;;;;;;15.73;13.03;;;24.80;57.60;;;;;;5123670;27;1259281;-67
2022/08/17 08:26:08;;;;;;;13.83;12.57;;;25.40;58.00;;;;;;5163461;27;20428;-67
2022/08/17 08:28:45;;;;;;;12.90;11.80;;;25.40;57.80;;;;;;5164115;27;20422;-68
2022/08/17 08:31:24;;;;;;;12.10;10.80;;;25.50;57.50;;;;;;5163125;27;20465;-67
2022/08/17 08:34:03;;;;;;;12.67;11.40;;;25.50;57.50;;;;;;5163311;27;20421;-67
2022/08/17 08:36:45;;;;;;;14.37;12.07;;;25.60;57.20;;;;;;5163315;27;20493;-67
2022/08/17 08:39:20;;;;;;;12.83;11.80;;;25.70;57.60;;;;;;5164749;27;20442;-66
2022/08/17 08:41:54;;;;;;;11.83;10.93;;;25.70;58.00;;;;;;5164184;27;20464;-66
2022/08/17 08:44:33;;;;;;;13.53;12.20;;;25.80;56.90;;;;;;5164575;27;20429;-66
2022/08/17 08:47:10;;;;;;;13.00;11.80;;;25.80;56.60;;;;;;5162471;27;20426;-67
2022/08/17 08:49:55;;;;;;;12.70;11.50;;;25.80;56.90;;;;;;5163333;27;20434;-67
2022/08/17 08:52:35;;;;;;;13.50;12.40;;;25.70;56.50;;;;;;5162808;27;20507;-67
2022/08/17 08:55:10;;;;;;;13.53;12.50;;;25.70;56.80;;;;;;5162952;27;20426;-67
2022/08/17 08:57:50;;;;;;;16.10;13.77;;;25.70;57.20;;;;;;5163583;27;20421;-66
2022/08/17 09:00:20;;;;;;;13.77;12.60;;;25.70;56.90;;;;;;5163694;27;20936;-66
2022/08/17 09:03:11;;;;;;;14.57;13.27;;;25.70;56.70;;;;;;5163756;27;20468;-66
2022/08/17 09:05:55;;;;;;;18.63;13.67;;;25.70;57.00;;;;;;5163168;27;20438;-66
2022/08/17 09:08:27;;;;;;;14.97;13.30;;;25.70;57.60;;;;;;5165052;27;20453;-66
2022/08/17 09:11:01;;;;;;;13.43;12.13;;;25.70;57.30;;;;;;5165248;27;20473;-66
2022/08/17 09:13:45;;;;;;;13.83;12.63;;;25.80;57.00;;;;;;5165332;27;20552;-67
2022/08/17 09:16:19;;;;;;;14.47;12.97;;;25.80;56.40;;;;;;5164411;27;20433;-66
2022/08/17 09:18:50;;;;;;;13.53;11.60;;;25.90;56.50;;;;;;5164225;27;20430;-66
2022/08/17 09:21:21;;;;;;;16.17;13.30;;;26.00;56.50;;;;;;5164280;27;20450;-66
2022/08/17 09:23:58;;;;;;;14.80;13.00;;;26.10;56.50;;;;;;5152048;27;20431;-66
2022/08/17 09:26:31;;;;;;;14.17;12.63;;;26.10;56.70;;;;;;5151177;27;20431;-66
2022/08/17 09:29:03;;;;;;;15.37;13.83;;;26.10;56.30;;;;;;5150720;27;20799;-67
2022/08/17 09:31:34;;;;;;;15.23;13.57;;;26.00;56.10;;;;;;5150444;27;20496;-66
2022/08/17 09:34:03;;;;;;;14.20;13.00;;;26.00;57.00;;;;;;5151140;27;20425;-66
2022/08/17 09:36:34;;;;;;;15.87;12.87;;;26.00;56.60;;;;;;5148943;27;20452;-66
2022/08/17 09:39:06;;;;;;;14.40;13.00;;;26.00;57.00;;;;;;5150437;27;20925;-66
2022/08/17 09:41:42;;;;;;;15.60;13.20;;;26.00;56.60;;;;;;5149916;27;20462;-66
2022/08/17 09:44:18;;;;;;;16.67;15.27;;;26.00;56.90;;;;;;5150094;27;20909;-67
2022/08/17 09:46:50;;;;;;;17.30;14.57;;;25.90;56.50;;;;;;5150955;27;20924;-67
2022/08/17 09:49:26;;;;;;;17.10;15.30;;;25.90;56.90;;;;;;5151136;27;20449;-66
2022/08/17 09:51:57;;;;;;;17.97;16.27;;;25.90;58.40;;;;;;5150569;27;20864;-66
2022/08/17 09:54:28;;;;;;;17.00;15.43;;;25.80;58.30;;;;;;5151464;27;20430;-66
2022/08/17 09:57:06;;;;;;;16.90;15.10;;;25.60;58.00;;;;;;5151487;27;20426;-66
2022/08/17 09:59:58;;;;;;;16.07;14.63;;;25.60;58.50;;;;;;5150448;27;20945;-66
2022/08/17 10:02:53;;;;;;;16.50;14.90;;;25.60;58.90;;;;;;5150669;27;20450;-66
2022/08/17 10:05:23;;;;;;;16.87;15.37;;;25.50;59.00;;;;;;5149880;27;20490;-66
2022/08/17 10:08:00;;;;;;;20.50;15.60;;;25.40;59.40;;;;;;5150206;27;20529;-66
2022/08/17 10:10:33;;;;;;;16.27;14.63;;;25.40;61.30;;;;;;5147661;27;20428;-66
2022/08/17 10:13:06;;;;;;;21.23;16.67;;;25.20;62.50;;;;;;5147834;27;20492;-65
2022/08/17 10:15:45;;;;;;;17.07;15.67;;;25.20;64.30;;;;;;5147687;27;20434;-65
2022/08/17 10:18:36;;;;;;;18.50;16.50;;;25.10;64.60;;;;;;5147379;27;20430;-65
2022/08/17 10:26:46;;;;;;;18.50;16.70;;;25.00;66.20;;;;;;5149735;27;20394;-65
2022/08/17 10:29:19;;;;;;;17.40;15.90;;;24.80;65.90;;;;;;5151720;27;20950;-65
2022/08/17 10:31:49;;;;;;;19.37;16.70;;;24.70;65.30;;;;;;5149815;27;20486;-66
2022/08/17 10:34:49;;;;;;;17.27;15.77;;;24.60;66.10;;;;;;5148691;27;20454;-67
2022/08/17 10:37:46;;;;;;;19.50;17.70;;;24.50;67.40;;;;;;5148066;27;20446;-66
2022/08/17 10:40:26;;;;;;;18.10;16.60;;;24.30;68.30;;;;;;5148909;27;20456;-65
2022/08/17 10:42:59;;;;;;;19.40;17.70;;;24.30;69.60;;;;;;5147744;27;20492;-65
2022/08/17 10:45:31;;;;;;;19.60;18.00;;;24.30;70.10;;;;;;5147759;27;20422;-65
2022/08/17 10:48:02;;;;;;;19.90;17.87;;;24.30;70.60;;;;;;5150745;27;20426;-66
2022/08/17 10:51:00;;;;;;;19.83;17.80;;;24.20;70.70;;;;;;5151108;27;20462;-65
2022/08/17 10:53:56;;;;;;;18.83;17.23;;;24.20;70.60;;;;;;5151126;27;20466;-65
2022/08/17 10:56:44;;;;;;;20.33;18.43;;;24.20;71.00;;;;;;5151789;27;20446;-65
2022/08/17 10:59:47;;;;;;;20.23;18.53;;;24.30;72.00;;;;;;5152311;27;20426;-65
2022/08/17 11:02:26;;;;;;;20.27;18.57;;;24.30;72.60;;;;;;5146045;27;20470;-66
2022/08/17 11:05:21;;;;;;;22.40;20.60;;;24.30;72.50;;;;;;5149712;27;20462;-66
2022/08/17 11:08:12;;;;;;;22.50;20.40;;;24.30;73.10;;;;;;5150722;27;20434;-66
2022/08/17 11:10:49;;;;;;;22.90;21.00;;;24.40;73.60;;;;;;5149864;27;20433;-66
2022/08/17 11:13:30;;;;;;;22.80;20.73;;;24.50;74.00;;;;;;5150639;27;20543;-66
2022/08/17 11:16:11;;;;;;;23.30;21.40;;;24.50;73.40;;;;;;5149576;27;20422;-66
2022/08/17 11:19:07;;;;;;;23.50;21.40;;;24.50;73.70;;;;;;5149786;27;20422;-66
2022/08/17 11:21:58;;;;;;;21.00;19.20;;;24.40;73.20;;;;;;5149398;27;20478;-66
2022/08/17 11:24:33;;;;;;;24.63;22.40;;;24.40;74.10;;;;;;5149074;27;20434;-66
2022/08/17 11:27:21;;;;;;;24.43;22.00;;;24.30;73.90;;;;;;5149043;27;20439;-66
2022/08/17 11:29:52;;;;;;;24.23;22.23;;;24.30;73.60;;;;;;5147519;27;20442;-66
2022/08/17 11:32:39;;;;;;;24.10;21.90;;;24.30;74.50;;;;;;5148203;27;20485;-66
2022/08/17 11:35:28;;;;;;;25.80;23.43;;;24.20;74.60;;;;;;5148581;27;20498;-66
2022/08/17 11:38:10;;;;;;;24.63;22.50;;;24.30;74.50;;;;;;5147958;27;20438;-66
2022/08/17 11:41:02;;;;;;;26.63;24.20;;;24.30;75.10;;;;;;5147365;27;20941;-68
2022/08/17 11:43:55;;;;;;;23.73;21.70;;;24.40;74.00;;;;;;5147357;27;20462;-66
2022/08/17 11:51:32;;;;;;;24.83;22.70;;;24.40;73.50;;;;;;5147577;27;20956;-68
2022/08/17 11:52:40;;;;;;;27.80;25.20;;;24.50;73.20;;;;;;5110498;27;20466;-66
2022/08/17 11:55:10;;;;;;;27.60;24.90;;;24.60;73.30;;;;;;5147955;27;20419;-67
2022/08/17 11:58:05;;;;;;;25.63;23.00;;;24.60;73.10;;;;;;5149658;27;20446;-67
2022/08/17 12:00:53;;;;;;;27.87;25.33;;;24.60;73.60;;;;;;5147133;27;20431;-66
2022/08/17 12:03:25;;;;;;;27.33;24.90;;;24.50;73.40;;;;;;5147407;27;20457;-66
2022/08/17 12:06:02;;;;;;;27.47;25.07;;;24.40;74.00;;;;;;5147113;27;20421;-67
2022/08/17 12:08:32;;;;;;;27.30;25.00;;;24.40;74.60;;;;;;5148094;27;20483;-66
2022/08/17 12:11:03;;;;;;;27.40;25.00;;;24.40;75.20;;;;;;5147519;28;20433;-66
2022/08/17 12:13:35;;;;;;;25.27;22.97;;;24.50;75.70;;;;;;5146937;28;20482;-66
2022/08/17 12:16:03;;;;;;;26.37;24.17;;;24.60;75.60;;;;;;5147371;28;20426;-67
2022/08/17 12:18:34;;;;;;;29.17;26.63;;;24.70;75.60;;;;;;5147849;28;20445;-67
2022/08/17 12:21:24;;;;;;;29.90;27.30;;;24.90;75.00;;;;;;5145960;28;20430;-66
2022/08/17 12:23:57;;;;;;;28.13;25.70;;;25.10;74.50;;;;;;5143582;28;20451;-66
2022/08/17 12:26:29;;;;;;;28.17;25.80;;;25.40;73.80;;;;;;5147845;28;20426;-66
2022/08/17 12:28:59;;;;;;;28.07;25.77;;;25.60;72.10;;;;;;5148506;28;20418;-66
2022/08/17 12:31:29;;;;;;;29.10;26.50;;;26.00;72.50;;;;;;5145754;28;20429;-67
2022/08/17 12:33:56;;;;;;;29.20;26.83;;;26.30;68.30;;;;;;5145386;28;20438;-67
2022/08/17 12:36:27;;;;;;;29.00;26.20;;;26.50;68.00;;;;;;5147343;28;20536;-67
2022/08/17 12:39:00;;;;;;;28.00;25.60;;;26.70;65.60;;;;;;5147906;28;20480;-66
2022/08/17 12:41:33;;;;;;;27.80;25.47;;;26.80;65.60;;;;;;5148198;28;20462;-66
2022/08/17 12:44:02;;;;;;;26.87;24.50;;;27.10;63.30;;;;;;5148028;28;20430;-66
2022/08/17 12:46:33;;;;;;;26.70;24.50;;;27.40;62.00;;;;;;5149161;28;20437;-66
2022/08/17 12:49:21;;;;;;;25.43;23.03;;;27.60;60.90;;;;;;5147458;28;20533;-66
2022/08/17 12:51:50;;;;;;;28.37;25.87;;;27.80;59.80;;;;;;5146983;28;20469;-66
2022/08/17 12:54:27;;;;;;;27.40;25.17;;;28.00;59.20;;;;;;5148226;28;20446;-66
2022/08/17 12:56:55;;;;;;;26.00;23.97;;;27.90;59.60;;;;;;5147978;27;20956;-67
2022/08/17 12:59:23;;;;;;;27.57;25.17;;;27.90;59.30;;;;;;5152283;27;20430;-66
2022/08/17 13:01:50;;;;;;;27.43;25.23;;;28.00;59.20;;;;;;5150969;27;20486;-66
2022/08/17 13:04:19;;;;;;;25.47;23.57;;;28.30;59.00;;;;;;5151383;27;20415;-67
2022/08/17 13:06:50;;;;;;;24.70;22.80;;;28.90;57.90;;;;;;5151804;27;20809;-67
2022/08/17 13:09:20;;;;;;;27.10;24.83;;;29.00;56.30;;;;;;5151240;27;20426;-66
2022/08/17 13:11:51;;;;;;;25.73;23.73;;;29.00;55.10;;;;;;5152368;27;20469;-66
2022/08/17 13:14:18;;;;;;;25.67;23.57;;;28.90;55.60;;;;;;5152110;27;20513;-67
2022/08/17 13:16:51;;;;;;;25.43;23.40;;;28.80;56.20;;;;;;5151405;27;20422;-68
2022/08/17 13:19:20;;;;;;;22.83;21.13;;;28.70;56.40;;;;;;5151035;27;20429;-67
2022/08/17 13:21:50;;;;;;;25.20;23.00;;;28.60;56.70;;;;;;5150655;27;20480;-67
2022/08/17 13:24:19;;;;;;;26.17;24.17;;;28.50;56.50;;;;;;5151116;27;20446;-67
2022/08/17 13:26:53;;;;;;;24.40;22.53;;;28.50;56.00;;;;;;5151766;27;20805;-68
2022/08/17 13:29:24;;;;;;;23.57;21.63;;;28.60;56.40;;;;;;5151532;27;20431;-66
2022/08/17 13:31:54;;;;;;;23.77;21.97;;;28.70;56.40;;;;;;5151234;27;20936;-67
2022/08/17 13:34:39;;;;;;;25.53;23.30;;;28.80;55.40;;;;;;5151084;27;20873;-68
2022/08/17 13:37:28;;;;;;;23.03;21.33;;;28.90;55.30;;;;;;5149894;27;20548;-67
2022/08/17 13:39:58;;;;;;;24.23;22.30;;;28.90;55.50;;;;;;5150936;27;20430;-67
2022/08/17 13:42:43;;;;;;;26.07;24.10;;;28.90;55.10;;;;;;5151629;27;20996;-66
2022/08/17 13:45:36;;;;;;;26.03;24.13;;;29.00;54.80;;;;;;5151254;27;20430;-67
2022/08/17 13:48:13;;;;;;;25.60;23.60;;;29.00;54.10;;;;;;5139998;27;20472;-67
2022/08/17 13:50:43;;;;;;;27.30;25.20;;;28.90;54.70;;;;;;5150988;27;20428;-66
2022/08/17 13:53:22;;;;;;;26.20;24.17;;;28.70;55.40;;;;;;5150932;27;20494;-67
2022/08/17 13:55:54;;;;;;;27.07;24.87;;;28.60;55.50;;;;;;5149632;27;20792;-67
2022/08/17 13:58:26;;;;;;;25.70;23.80;;;28.40;56.00;;;;;;5149788;27;20460;-67
2022/08/17 14:00:55;;;;;;;26.37;24.07;;;28.40;56.10;;;;;;5150164;27;20418;-67
2022/08/17 14:03:22;;;;;;;22.00;20.30;;;28.40;56.40;;;;;;5150141;27;20535;-67